Terminal Aerodrome Forecast
Issued by NWS

Home | Current Version | Previous Version | Text Only | Print | Product List | Glossary On
Versions: 1 2 3 4 5 6 7 8 9 10 11 12 13 14 15 16 17 18 19 20 21
000
FTUS41 KGYX 211701 AAD
TAFLEB
TAF AMD
KLEB 211701Z 2117/2212 00000KT 3/4SM -SN OVC020
      TEMPO 2118/2122 4SM -SN OVC035
     FM221000 00000KT P6SM OVC025=

USA.gov is the U.S. government's official web portal to all federal, state and local government web resources and services.